Valle Azzurra — ICEG — position and weather

sailwx.info

Track history (hours):
 
Tides and Currents Weather Stations Pressure Air Temp Water Temp Dewpoint Dewpoint Depression Visibility Wind Speed Wind Dir Waves Ship Positions

Valle Azzurra

Last reported at 2018-May-22 21:45 UTC. Time now 2018-May-23 18:31 UTC.
Position N 38°58' E 121°39'.

Length 183 m; draft 8 m.

Type: Ship (hazmat cat A). MMSI: 247226600.

Date/timePositionNaut miles runAvg speedWind from/ knotsBaromVisibWave heightAir tempDewpointWater temp
2018-May-22 21:45N 38°58' E 121°39'0 0.6
2018-May-22 21:30N 38°58' E 121°39'5 6.8
2018-May-22 20:49N 38°57' E 121°45'5 8.4
2018-May-22 20:11N 38°52' E 121°47'2 9.2
2018-May-22 20:00N 38°51' E 121°48'12 2.5
2018-May-22 15:17N 38°57' E 122°01'48 2.3
2018-May-21 18:15N 38°17' E 122°37'26 8.2
2018-May-21 15:06N 38°01' E 123°02'4 8.9
2018-May-21 14:42N 37°59' E 123°06'1 6.2
2018-May-21 14:30N 37°58' E 123°07'7 9.0
2018-May-21 13:44N 37°53' E 123°13'  
2018-May-15 14:20N 33°42' E 132°01'412.1
2018-May-15 14:01N 33°43' E 131°57'612.8
2018-May-15 13:31N 33°44' E 131°49'612.6
2018-May-15 13:00N 33°46' E 131°42'611.9
2018-May-15 12:31N 33°47' E 131°35'612.0
2018-May-15 12:00N 33°48' E 131°27'611.7
2018-May-15 11:31N 33°50' E 131°21'611.4
2018-May-15 11:01N 33°51' E 131°14'510.9
2018-May-15 10:31N 33°54' E 131°08'510.9
2018-May-15 10:01N 33°57' E 131°03'4 7.2
2018-May-15 09:30N 33°58' E 130°59'510.8
2018-May-15 09:01N 33°54' E 130°55'510.4
2018-May-15 08:31N 33°59' E 130°52'510.3
2018-May-15 08:01N 34°03' E 130°48'713.7
2018-May-15 07:30N 34°08' E 130°42'714.2
2018-May-15 07:00N 34°13' E 130°37'714.1
2018-May-15 06:30N 34°19' E 130°32'714.1
2018-May-15 06:00N 34°24' E 130°26'714.1
2018-May-15 05:30N 34°30' E 130°21'714.2
2018-May-15 05:00N 34°35' E 130°15'713.9
2018-May-15 04:30N 34°41' E 130°10'713.7
2018-May-15 04:01N 34°46' E 130°05'713.7
2018-May-15 03:30N 34°51' E 129°59'713.9
2018-May-15 03:00N 34°56' E 129°53'1013.7
2018-May-15 02:15N 35°04' E 129°45'513.1
2018-May-15 01:53N 35°08' E 129°42'2012.4
2018-May-15 00:19N 35°23' E 129°27'  
Track history (hours):
 
Tides and Currents Weather Stations Pressure Air Temp Water Temp Dewpoint Dewpoint Depression Visibility Wind Speed Wind Dir Waves Ship Positions

Valle Azzurra

Last reported at 2018-May-22 21:45 UTC. Time now 2018-May-23 18:31 UTC.
Position N 38°58' E 121°39'.

Length 183 m; draft 8 m.

Type: Ship (hazmat cat A). MMSI: 247226600.

Date/timePositionNaut miles runAvg speedWind from/ knotsBaromVisibWave heightAir tempDewpointWater temp
2018-May-22 21:45N 38°58' E 121°39'0 0.6
2018-May-22 21:30N 38°58' E 121°39'5 6.8
2018-May-22 20:49N 38°57' E 121°45'5 8.4
2018-May-22 20:11N 38°52' E 121°47'2 9.2
2018-May-22 20:00N 38°51' E 121°48'12 2.5
2018-May-22 15:17N 38°57' E 122°01'48 2.3
2018-May-21 18:15N 38°17' E 122°37'26 8.2
2018-May-21 15:06N 38°01' E 123°02'4 8.9
2018-May-21 14:42N 37°59' E 123°06'1 6.2
2018-May-21 14:30N 37°58' E 123°07'7 9.0
2018-May-21 13:44N 37°53' E 123°13'  
2018-May-15 14:20N 33°42' E 132°01'412.1
2018-May-15 14:01N 33°43' E 131°57'612.8
2018-May-15 13:31N 33°44' E 131°49'612.6
2018-May-15 13:00N 33°46' E 131°42'611.9
2018-May-15 12:31N 33°47' E 131°35'612.0
2018-May-15 12:00N 33°48' E 131°27'611.7
2018-May-15 11:31N 33°50' E 131°21'611.4
2018-May-15 11:01N 33°51' E 131°14'510.9
2018-May-15 10:31N 33°54' E 131°08'510.9
2018-May-15 10:01N 33°57' E 131°03'4 7.2
2018-May-15 09:30N 33°58' E 130°59'510.8
2018-May-15 09:01N 33°54' E 130°55'510.4
2018-May-15 08:31N 33°59' E 130°52'510.3
2018-May-15 08:01N 34°03' E 130°48'713.7
2018-May-15 07:30N 34°08' E 130°42'714.2
2018-May-15 07:00N 34°13' E 130°37'714.1
2018-May-15 06:30N 34°19' E 130°32'714.1
2018-May-15 06:00N 34°24' E 130°26'714.1
2018-May-15 05:30N 34°30' E 130°21'714.2
2018-May-15 05:00N 34°35' E 130°15'713.9
2018-May-15 04:30N 34°41' E 130°10'713.7
2018-May-15 04:01N 34°46' E 130°05'713.7
2018-May-15 03:30N 34°51' E 129°59'713.9
2018-May-15 03:00N 34°56' E 129°53'1013.7
2018-May-15 02:15N 35°04' E 129°45'513.1
2018-May-15 01:53N 35°08' E 129°42'2012.4
2018-May-15 00:19N 35°23' E 129°27'  

Dump ship's entire track history